Airfield :
LOGIN :

Register | Disclaimer

   EN    FR    IT 

 










Legend :    VFR   Marginal VFR   IFR   Intensive IFR   Very Intensive IFR
Visi :
Ceiling :
>= 8 km
>= 3000ft
5 to 8 km
1000 to 3000 ft
1500m to 5 km
500 to 1000 ft
800 to 1500m
200 to 500 ft
< 800m
< 200 ft
Symbols :   Thunderstorms  Fog  Heavy snow  Heavy precipitations  Wind > 20 kt
SIGMETs :     Misc.  Thunderstorms  Icing  Turbulence  Mountain Waves  Volcanic Ashes







- Airport Elevation : 278 ft
- IATA code : RJK


LDRI - Rijeka

CURRENT METAR :
  • 251800Z 09004KT CAVOK 15/04 Q1008

EXPIRED METARs :
  • 251730Z VRB02KT CAVOK 15/04 Q1008
  • 251700Z VRB01KT CAVOK 16/03 Q1008

TAF TAF LDRI
Valid from the 25 at 18:00 until the 26 at 18:00 UTC


251725Z 2518/2618 VRB02KT 9999 BKN030 TX15/2518Z TN05/2604Z
BECMG 2518/2520 04020G40KT
TEMPO 2519/2604 04030G55KT RA
PROB30
TEMPO 2519/2522 TSRA FEW025CB BKN030
BECMG 2609/2611 04012KT
PROB30
TEMPO 2611/2618 04015G25KT
No reported NOTAMs for that airfield.
1 SIGMET reported for the Zagreb FIR (LDZO) :
 
Embedded thunderstorms
LDZO SIGMET 5 VALID 251900/252000 LDZA
LDZO ZAGREB FIR EMBD TS OBS WI N4542 E01613 - N4510 E01544 - N4524 E01514 - N4604 E01541 - N4542 E01613 TOP FL300 MOV SE 10KT WKN=



MET'MAP, your aeronautical weather chart ! - Copyright ORBIFLY December 2007 - Disclaimer

ORBIFLY MET'MAP TEAM :

Programming & Development : Alexandra Zaïnal
Concept & Development : Baudouin d'Aumeries
Co-Development & Prog : Marc-Olivier Méhu
Technical & hardware support : Manuel Goepfert

Contact : metmap@orbifly.com




SOURCES & CREDITS :

   NOAA